Nimbus Weather Services

Informe meteorológico para Carrasco, Uruguay. El informe se hizo hace un momento, a las 02:00 UTC. El viento soplaba a una velocidad de 5.1 m/s (11.5 millas por hora) del norte-noreste (020°). La temperatura era 27 °C (81 °F), con un punto de rocío de 15 °C (59 °F). La sensación térmica era de 27 °C (81 °F). La presión atmosférica era 997 hPa (29.44 inHg). Había una humedad relativa del 47.8%. Cielo: algunas nubes tipo cumulonimbos a una altitud de 1219 metros (4000 pies) y nubosidad discontinua a una altitud de 2134 metros (7000 pies). En aquel momento la visibilidad global era mayor de 10 kilómetros (6.2 millas). Actualmente tormenta.

La clave METAR es: SUMU 170200Z 02010KT 9999 TS FEW040CB BKN070 27/15 Q0997 TEMPO TSRA

Consulta realizada el Sábado 16 de Diciembre de 2017 23:02. Tiempo usado para generar esta pagina:6,416 ms.